createdAt,value
2018-02-06T00:00:07.311Z,20.53
2018-02-06T00:02:11.154Z,18.83
2018-02-06T00:04:15.317Z,19.90
2018-02-06T00:06:19.132Z,18.27
2018-02-06T00:08:22.881Z,18.17
2018-02-06T00:10:26.924Z,19.97
2018-02-06T00:12:30.853Z,18.57
2018-02-06T00:14:34.661Z,20.20
2018-02-06T00:16:38.758Z,20.20
2018-02-06T00:18:42.513Z,20.23
2018-02-06T00:20:46.374Z,18.63
2018-02-06T00:22:51.452Z,20.20
2018-02-06T00:24:55.570Z,17.60
2018-02-06T00:26:59.368Z,21.40
2018-02-06T00:29:03.198Z,19.40
2018-02-06T00:31:07.755Z,21.67
2018-02-06T00:33:11.835Z,20.27
2018-02-06T00:35:15.730Z,19.90
2018-02-06T00:37:19.594Z,21.33
2018-02-06T00:39:23.634Z,22.40
2018-02-06T00:41:27.516Z,24.27
2018-02-06T00:43:31.370Z,24.63
2018-02-06T00:45:35.223Z,23.37
2018-02-06T00:47:39.655Z,21.27
2018-02-06T00:49:43.560Z,22.27
2018-02-06T00:51:47.585Z,21.50
2018-02-06T00:53:51.493Z,22.17
2018-02-06T00:55:55.546Z,22.83
2018-02-06T00:57:59.554Z,22.97
2018-02-06T01:00:03.592Z,21.10
2018-02-06T01:02:08.037Z,21.23
2018-02-06T01:04:12.262Z,19.53
2018-02-06T01:06:16.590Z,19.40
2018-02-06T01:08:20.379Z,23.17
2018-02-06T01:10:28.926Z,19.90
2018-02-06T01:12:32.709Z,20.50
2018-02-06T01:14:36.607Z,22.30
2018-02-06T01:16:40.460Z,21.33
2018-02-06T01:18:44.726Z,19.17
2018-02-06T01:20:48.910Z,21.33
2018-02-06T01:22:52.996Z,20.33
2018-02-06T01:24:56.877Z,19.37
2018-02-06T01:27:01.480Z,18.53
2018-02-06T01:29:05.803Z,20.10
2018-02-06T01:31:10.103Z,21.40
2018-02-06T01:33:14.236Z,19.27
2018-02-06T01:35:18.292Z,23.83
2018-02-06T01:37:22.165Z,21.40
2018-02-06T01:39:25.981Z,18.27
2018-02-06T01:41:29.984Z,18.97
2018-02-06T01:43:34.537Z,20.03
2018-02-06T01:45:38.706Z,18.90
2018-02-06T01:47:44.852Z,18.30
2018-02-06T01:49:57.836Z,19.33
2018-02-06T01:52:03.267Z,21.40
2018-02-06T01:54:07.369Z,18.17
2018-02-06T01:56:11.917Z,21.53
2018-02-06T01:58:15.997Z,19.30
2018-02-06T02:00:19.801Z,23.20
2018-02-06T02:02:23.564Z,17.73
2018-02-06T02:04:28.139Z,21.17
2018-02-06T02:06:32.279Z,20.47
2018-02-06T02:08:36.572Z,20.50
2018-02-06T02:10:41.387Z,19.33
2018-02-06T02:12:45.275Z,17.33
2018-02-06T02:14:49.173Z,19.57
2018-02-06T02:16:53.023Z,20.13
2018-02-06T02:18:57.868Z,19.73
2018-02-06T02:21:02.104Z,20.80
2018-02-06T02:23:06.296Z,18.83
2018-02-06T02:25:11.713Z,18.33
2018-02-06T02:27:15.706Z,18.90
2018-02-06T02:29:19.885Z,17.93
2018-02-06T02:31:23.762Z,17.50
2018-02-06T02:33:27.941Z,20.10
2018-02-06T02:35:32.079Z,20.40
2018-02-06T02:37:36.733Z,20.50
2018-02-06T02:39:40.689Z,17.73
2018-02-06T04:39:39.854Z,22.27
2018-02-06T04:41:43.889Z,21.93
2018-02-06T04:43:48.453Z,25.90
2018-02-06T04:45:52.512Z,24.90
2018-02-06T04:47:56.401Z,20.00
2018-02-06T04:50:01.089Z,20.13
2018-02-06T04:52:05.409Z,25.40
2018-02-06T04:54:09.396Z,22.10
2018-02-06T04:56:13.605Z,28.53
2018-02-06T04:58:17.635Z,21.20
2018-02-06T05:00:22.194Z,20.63
2018-02-06T05:02:26.459Z,22.60
2018-02-06T05:04:30.682Z,22.80
2018-02-06T05:06:34.421Z,24.50
2018-02-06T05:08:38.497Z,25.00
2018-02-06T05:10:42.253Z,22.83
2018-02-06T05:12:46.000Z,25.80
2018-02-06T05:14:49.757Z,26.13
2018-02-06T05:16:53.807Z,24.20
2018-02-06T05:18:58.172Z,24.23
2018-02-06T05:21:02.024Z,23.60
2018-02-06T05:23:05.988Z,25.83
2018-02-06T05:25:10.485Z,22.83
2018-02-06T05:27:15.870Z,22.77
2018-02-06T05:29:20.339Z,22.70
2018-02-06T05:31:24.102Z,24.73
2018-02-06T05:33:28.642Z,24.33
2018-02-06T05:35:32.780Z,24.67
2018-02-06T05:37:37.196Z,26.00
2018-02-06T05:39:41.396Z,26.67
2018-02-06T05:41:45.478Z,25.67
2018-02-06T05:43:49.637Z,26.63
2018-02-06T05:45:53.869Z,24.43
2018-02-06T05:47:57.710Z,25.83
2018-02-06T05:50:02.384Z,27.20
2018-02-06T05:52:06.134Z,28.30
2018-02-06T05:54:09.887Z,27.23
2018-02-06T05:56:13.941Z,28.43
2018-02-06T05:58:18.026Z,25.47
2018-02-06T06:00:22.225Z,25.67
2018-02-06T06:02:26.231Z,30.40
2018-02-06T06:04:30.062Z,26.20
2018-02-06T06:06:34.398Z,25.30
2018-02-06T06:08:38.459Z,32.07
2018-02-06T06:10:42.468Z,25.73
2018-02-06T06:12:46.387Z,26.80
2018-02-06T06:14:50.474Z,26.43
2018-02-06T06:16:54.479Z,26.80
2018-02-06T06:18:58.295Z,27.67
2018-02-06T06:21:02.419Z,28.57
2018-02-06T06:23:06.324Z,25.67
2018-02-06T06:25:10.210Z,27.73
2018-02-06T06:27:14.728Z,27.47
2018-02-06T06:29:19.068Z,27.50
2018-02-06T06:31:23.048Z,28.53
2018-02-06T06:33:26.882Z,28.67
2018-02-06T06:35:31.456Z,25.53
2018-02-06T06:37:35.314Z,26.33
2018-02-06T06:39:39.191Z,29.60
2018-02-06T06:41:43.284Z,28.50
2018-02-06T06:43:47.074Z,26.67
2018-02-06T06:45:51.005Z,28.23
2018-02-06T06:47:55.201Z,25.37
2018-02-06T06:49:59.881Z,29.03
2018-02-06T06:52:04.042Z,26.77
2018-02-06T06:54:07.880Z,29.50
2018-02-06T06:56:12.627Z,29.83
2018-02-06T06:58:16.749Z,29.20
2018-02-06T07:00:20.846Z,31.97
2018-02-06T07:02:25.527Z,29.43
2018-02-06T07:04:29.980Z,29.87
2018-02-06T07:06:33.788Z,28.23
2018-02-06T07:08:37.571Z,27.10
2018-02-06T07:10:41.598Z,30.77
2018-02-06T07:12:45.368Z,28.23
2018-02-06T07:14:49.523Z,27.43
2018-02-06T07:16:53.657Z,29.03
2018-02-06T07:18:57.542Z,25.07
2018-02-06T07:21:01.322Z,25.80
2018-02-06T07:23:05.308Z,28.70
2018-02-06T07:25:09.433Z,26.27
2018-02-06T07:27:13.383Z,25.63
2018-02-06T07:29:17.441Z,25.20
2018-02-06T07:31:21.845Z,22.43
2018-02-06T07:33:25.977Z,25.20
2018-02-06T07:35:29.783Z,23.73
2018-02-06T07:37:33.866Z,24.00
2018-02-06T07:39:38.226Z,25.80
2018-02-06T07:41:42.064Z,26.83
2018-02-06T07:43:45.855Z,27.40
2018-02-06T07:45:49.625Z,28.33
2018-02-06T07:47:53.802Z,26.90
2018-02-06T07:49:57.565Z,27.20
2018-02-06T07:52:01.404Z,28.40
2018-02-06T07:54:05.475Z,27.27
2018-02-06T07:56:11.249Z,29.93
2018-02-06T07:58:15.056Z,27.23
2018-02-06T08:00:19.095Z,29.07
2018-02-06T08:02:23.046Z,28.87
2018-02-06T08:04:26.899Z,31.50
2018-02-06T08:06:31.179Z,29.47
2018-02-06T08:08:35.141Z,31.30
2018-02-06T08:10:39.096Z,30.27
2018-02-06T08:12:43.452Z,29.37
2018-02-06T08:14:47.367Z,30.77
2018-02-06T08:16:51.243Z,31.17
2018-02-06T08:18:55.444Z,29.90
2018-02-06T08:20:59.294Z,29.00
2018-02-06T08:23:03.271Z,33.70
2018-02-06T08:25:07.779Z,28.27
2018-02-06T08:27:12.558Z,29.50
2018-02-06T08:29:16.491Z,28.60
2018-02-06T08:31:22.018Z,28.80
2018-02-06T08:33:26.691Z,31.13
2018-02-06T08:35:30.577Z,32.60
2018-02-06T08:37:37.786Z,28.80
2018-02-06T08:43:57.859Z,30.57
2018-02-06T08:46:01.718Z,29.13
2018-02-06T08:48:05.669Z,25.83
2018-02-06T08:50:09.955Z,27.37
2018-02-06T08:52:13.782Z,23.93
2018-02-06T08:54:17.585Z,25.20
2018-02-06T08:56:21.672Z,28.10
2018-02-06T08:58:25.755Z,23.07
2018-02-06T09:00:29.981Z,26.03
2018-02-06T09:02:34.347Z,23.97
2018-02-06T09:04:38.114Z,22.67
2018-02-06T09:06:41.971Z,23.00
2018-02-06T09:08:46.149Z,27.50
2018-02-06T09:10:49.917Z,24.43
2018-02-06T09:12:53.706Z,21.17
2018-02-06T09:14:59.125Z,24.13
2018-02-06T09:17:02.969Z,23.90
2018-02-06T09:19:06.785Z,22.13
2018-02-06T09:21:10.912Z,21.70
2018-02-06T09:23:14.827Z,22.20
2018-02-06T09:25:18.614Z,22.20
2018-02-06T09:27:22.745Z,23.20
2018-02-06T09:29:26.688Z,22.93
2018-02-06T09:31:30.458Z,21.20
2018-02-06T09:33:34.678Z,19.63
2018-02-06T09:35:38.519Z,25.00
2018-02-06T09:37:42.313Z,21.43
2018-02-06T09:39:46.924Z,21.93
2018-02-06T09:41:50.810Z,20.70
2018-02-06T09:43:54.612Z,22.77
2018-02-06T09:45:59.014Z,21.27
2018-02-06T09:48:02.793Z,22.50
2018-02-06T09:50:06.612Z,24.53
2018-02-06T09:52:10.778Z,20.27
2018-02-06T09:54:14.538Z,19.70
2018-02-06T09:56:18.576Z,26.27
2018-02-06T09:58:22.805Z,21.57
2018-02-06T10:00:26.666Z,21.07
2018-02-06T10:02:30.458Z,22.83
2018-02-06T10:04:34.643Z,26.93
2018-02-06T10:06:38.503Z,18.77
2018-02-06T10:08:42.421Z,18.07
2018-02-06T10:10:46.488Z,18.40
2018-02-06T10:12:50.333Z,21.30
2018-02-06T10:14:54.098Z,17.00
2018-02-06T10:16:58.313Z,20.20
2018-02-06T10:19:02.148Z,18.93
2018-02-06T10:21:05.915Z,17.80
2018-02-06T10:23:10.701Z,18.73
2018-02-06T10:25:14.468Z,17.97
2018-02-06T10:27:18.356Z,17.47
2018-02-06T10:29:22.795Z,19.07
2018-02-06T10:31:26.677Z,18.10
2018-02-06T10:33:31.115Z,23.10
2018-02-06T10:35:35.563Z,23.50
2018-02-06T10:37:39.381Z,24.30
2018-02-06T10:39:43.285Z,17.70
2018-02-06T10:41:51.373Z,20.53
2018-02-06T10:43:55.212Z,19.93
2018-02-06T10:45:59.078Z,16.97
2018-02-06T10:48:03.381Z,22.10
2018-02-06T10:50:07.200Z,16.73
2018-02-06T10:52:10.998Z,16.77
2018-02-06T10:54:15.299Z,16.77
2018-02-06T10:56:19.056Z,16.83
2018-02-06T10:58:22.855Z,17.13
2018-02-06T11:00:42.414Z,20.50
2018-02-06T11:02:46.227Z,19.90
2018-02-06T11:04:50.086Z,20.30
2018-02-06T11:06:54.373Z,19.80
2018-02-06T11:08:58.242Z,24.23
2018-02-06T11:11:02.266Z,21.10
2018-02-06T11:13:06.394Z,19.83
2018-02-06T11:15:10.337Z,17.07
2018-02-06T11:17:14.060Z,21.83
2018-02-06T11:19:18.303Z,19.13
2018-02-06T11:21:22.100Z,25.10
2018-02-06T11:23:25.862Z,19.20
2018-02-06T11:25:30.117Z,22.30
2018-02-06T11:27:33.876Z,24.03
2018-02-06T11:29:37.625Z,17.93
2018-02-06T11:31:41.666Z,20.00
2018-02-06T11:33:45.794Z,17.90
2018-02-06T11:35:49.590Z,17.37
2018-02-06T11:37:54.056Z,16.60
2018-02-06T11:39:57.854Z,19.80
2018-02-06T11:42:01.641Z,21.20
2018-02-06T11:44:05.894Z,22.57
2018-02-06T11:46:09.710Z,16.43
2018-02-06T11:48:13.455Z,25.10
2018-02-06T11:50:17.857Z,23.47
2018-02-06T11:52:21.642Z,25.27
2018-02-06T11:54:25.409Z,18.13
2018-02-06T11:56:29.502Z,21.00
2018-02-06T11:58:33.513Z,17.97
2018-02-06T12:00:37.369Z,17.20
2018-02-06T12:02:41.581Z,28.13
2018-02-06T12:04:45.504Z,16.60
2018-02-06T12:06:49.284Z,17.33
2018-02-06T12:08:53.412Z,19.13
2018-02-06T12:10:57.222Z,19.90
2018-02-06T12:13:00.991Z,19.47
2018-02-06T12:15:05.377Z,15.17
2018-02-06T12:17:09.186Z,16.97
2018-02-06T12:19:12.976Z,16.97
2018-02-06T12:21:17.049Z,16.30
2018-02-06T12:23:20.861Z,15.00
2018-02-06T12:25:24.686Z,17.17
2018-02-06T12:27:28.697Z,17.10
2018-02-06T12:29:32.512Z,15.87
2018-02-06T12:31:36.489Z,18.17
2018-02-06T12:33:40.524Z,17.57
2018-02-06T12:35:45.090Z,16.80
2018-02-06T12:37:48.885Z,17.30
2018-02-06T12:39:57.702Z,17.73
2018-02-06T12:42:01.828Z,19.57
2018-02-06T12:44:05.757Z,14.90
2018-02-06T12:46:10.211Z,15.17
2018-02-06T12:48:14.254Z,18.00
2018-02-06T12:50:18.084Z,16.93
2018-02-06T12:52:22.353Z,19.17
2018-02-06T12:54:26.287Z,15.17
2018-02-06T12:56:30.126Z,22.90
2018-02-06T12:58:34.261Z,18.43
2018-02-06T13:00:38.027Z,17.67
2018-02-06T13:02:41.818Z,15.13
2018-02-06T13:04:47.412Z,15.90
2018-02-06T13:06:51.490Z,18.43
2018-02-06T13:08:55.279Z,15.33
2018-02-06T13:10:59.379Z,15.30
2018-02-06T13:13:03.660Z,17.90
2018-02-06T13:15:07.462Z,15.27
2018-02-06T13:17:11.932Z,19.80
2018-02-06T13:19:15.919Z,18.43
2018-02-06T13:23:27.969Z,14.37
2018-02-06T13:25:31.717Z,19.53
2018-02-06T13:27:35.572Z,16.40
2018-02-06T13:29:39.596Z,18.07
2018-02-06T13:31:43.386Z,14.83
2018-02-06T13:33:47.172Z,15.60
2018-02-06T13:35:51.248Z,16.97
2018-02-06T13:37:55.036Z,17.13
2018-02-06T13:39:58.881Z,20.50
2018-02-06T13:42:02.972Z,17.03
2018-02-06T13:44:06.742Z,15.93
2018-02-06T13:46:10.532Z,17.30
2018-02-06T13:49:38.722Z,19.53
2018-02-06T13:51:42.505Z,15.27
2018-02-06T13:53:46.554Z,15.60
2018-02-06T13:55:50.356Z,17.20
2018-02-06T13:57:54.115Z,16.80
2018-02-06T13:59:58.125Z,14.20
2018-02-06T14:02:01.941Z,14.70
2018-02-06T14:04:05.730Z,16.50
2018-02-06T14:06:09.877Z,17.73
2018-02-06T14:08:14.305Z,16.73
2018-02-06T14:10:18.108Z,17.70
2018-02-06T14:12:22.215Z,18.27
2018-02-06T14:14:26.116Z,15.13
2018-02-06T14:16:30.124Z,17.20
2018-02-06T14:18:35.444Z,15.60
2018-02-06T14:20:40.430Z,14.70
2018-02-06T14:22:44.368Z,16.83
2018-02-06T14:24:48.441Z,15.77
2018-02-06T14:26:52.508Z,17.33
2018-02-06T14:28:56.421Z,14.20
2018-02-06T14:31:00.595Z,20.73
2018-02-06T14:33:04.702Z,16.60
2018-02-06T14:35:08.609Z,14.83
2018-02-06T14:37:12.756Z,18.30
2018-02-06T14:39:16.573Z,18.53
2018-02-06T14:41:20.536Z,14.57
2018-02-06T14:43:28.763Z,15.13
2018-02-06T14:45:33.054Z,14.40
2018-02-06T14:47:36.892Z,16.47
2018-02-06T14:49:41.048Z,14.83
2018-02-06T14:51:44.834Z,15.67
2018-02-06T14:53:48.632Z,15.37
2018-02-06T14:55:52.902Z,14.53
2018-02-06T14:57:56.707Z,15.53
2018-02-06T15:00:00.661Z,16.40
2018-02-06T15:02:04.829Z,18.00
2018-02-06T15:04:08.586Z,16.20
2018-02-06T15:06:12.461Z,16.13
2018-02-06T15:08:16.581Z,15.40
2018-02-06T15:10:20.376Z,15.20
2018-02-06T15:12:24.175Z,17.90
2018-02-06T15:14:28.284Z,15.40
2018-02-06T15:16:32.066Z,16.00
2018-02-06T15:18:35.902Z,15.77
2018-02-06T15:20:40.054Z,18.97
2018-02-06T15:22:44.057Z,16.73
2018-02-06T15:24:47.884Z,16.33
2018-02-06T15:26:52.344Z,17.43
2018-02-06T15:28:56.127Z,17.03
2018-02-06T15:30:59.999Z,14.93
2018-02-06T15:33:04.529Z,15.90
2018-02-06T15:35:08.325Z,17.50
2018-02-06T15:37:12.153Z,14.63
2018-02-06T15:39:16.273Z,13.57
2018-02-06T15:41:20.449Z,16.03
2018-02-06T15:43:24.325Z,14.83
2018-02-06T15:45:28.550Z,17.13
2018-02-06T15:47:32.425Z,16.13
2018-02-06T15:49:36.215Z,16.17
2018-02-06T15:51:41.013Z,19.33
2018-02-06T15:53:44.961Z,15.63
2018-02-06T15:55:48.739Z,15.30
2018-02-06T15:57:53.001Z,17.23
2018-02-06T15:59:56.730Z,14.33
2018-02-06T16:02:00.661Z,18.13
2018-02-06T16:04:04.784Z,14.60
2018-02-06T16:06:08.648Z,14.67
2018-02-06T16:08:12.421Z,15.07
2018-02-06T16:10:16.515Z,14.43
2018-02-06T16:12:20.306Z,14.30
2018-02-06T16:14:24.055Z,16.70
2018-02-06T16:16:28.190Z,13.97
2018-02-06T16:18:31.966Z,15.37
2018-02-06T16:20:35.736Z,14.10
2018-02-06T16:22:39.957Z,13.57
2018-02-06T16:24:43.745Z,15.53
2018-02-06T16:26:47.525Z,13.90
2018-02-06T16:28:51.761Z,18.60
2018-02-06T16:30:55.576Z,19.10
2018-02-06T16:32:59.365Z,13.47
2018-02-06T16:35:03.639Z,15.47
2018-02-06T16:37:07.454Z,16.30
2018-02-06T16:39:11.242Z,14.47
2018-02-06T16:41:15.576Z,15.73
2018-02-06T16:43:19.320Z,16.07
2018-02-06T16:45:23.124Z,14.80
2018-02-06T16:47:27.209Z,14.83
2018-02-06T16:49:30.998Z,14.23
2018-02-06T16:51:35.322Z,13.77
2018-02-06T16:53:39.423Z,14.33
2018-02-06T16:57:54.117Z,14.83
2018-02-06T16:59:58.232Z,16.27
2018-02-06T17:02:02.528Z,14.67
2018-02-06T17:04:06.639Z,13.40
2018-02-06T17:06:10.872Z,14.27
2018-02-06T17:08:14.894Z,14.33
2018-02-06T17:10:18.744Z,13.60
2018-02-06T17:12:22.997Z,19.53
2018-02-06T17:14:26.837Z,14.13
2018-02-06T17:16:31.032Z,16.57
2018-02-06T17:18:35.485Z,14.77
2018-02-06T17:20:39.616Z,14.67
2018-02-06T17:22:43.510Z,13.17
2018-02-06T17:24:48.355Z,14.30
2018-02-06T17:26:52.661Z,14.00
2018-02-06T17:28:56.508Z,17.30
2018-02-06T17:31:01.311Z,17.53
2018-02-06T17:33:05.128Z,17.30
2018-02-06T17:35:17.620Z,15.70
2018-02-06T17:37:21.895Z,16.40
2018-02-06T17:39:25.979Z,15.00
2018-02-06T17:41:31.982Z,15.80
2018-02-06T17:43:36.067Z,16.00
2018-02-06T17:45:40.026Z,17.03
2018-02-06T17:47:45.339Z,16.77
2018-02-06T17:49:49.429Z,16.83
2018-02-06T17:51:53.201Z,18.20
2018-02-06T17:53:57.388Z,19.50
2018-02-06T17:56:02.396Z,17.47
2018-02-06T17:58:06.209Z,485.17
2018-02-06T18:00:10.017Z,174.87
2018-02-06T18:02:14.094Z,222.10
2018-02-06T18:04:17.905Z,247.73
2018-02-06T18:06:21.885Z,269.17
2018-02-06T18:08:26.098Z,242.60
2018-02-06T18:10:29.912Z,235.53
2018-02-06T18:12:33.766Z,219.13
2018-02-06T18:14:37.911Z,217.80
2018-02-06T18:16:41.770Z,199.07
2018-02-06T18:18:45.570Z,198.10
2018-02-06T18:20:49.919Z,269.07
2018-02-06T18:22:53.748Z,487.40
2018-02-06T18:24:57.716Z,495.10
2018-02-06T18:27:02.129Z,442.43
2018-02-06T18:29:05.906Z,430.87
2018-02-06T18:31:09.736Z,436.70
2018-02-06T18:33:14.158Z,414.67
2018-02-06T18:35:18.055Z,399.57
2018-02-06T18:37:22.124Z,402.43
2018-02-06T18:39:26.252Z,397.00
2018-02-06T18:41:30.068Z,388.17
2018-02-06T18:43:35.405Z,407.37
2018-02-06T18:45:39.490Z,410.30
2018-02-06T18:47:43.476Z,388.23
2018-02-06T18:49:47.281Z,377.27
2018-02-06T18:51:51.450Z,367.93
2018-02-06T18:53:55.254Z,354.87
2018-02-06T18:55:59.157Z,333.83
2018-02-06T18:58:03.229Z,326.93
2018-02-06T19:00:07.114Z,317.57
2018-02-06T19:02:11.376Z,306.17
2018-02-06T19:04:15.498Z,293.27
2018-02-06T19:06:19.323Z,454.33
2018-02-06T19:08:23.561Z,660.63
2018-02-06T19:10:28.053Z,777.67
2018-02-06T19:12:31.900Z,741.37
2018-02-06T19:14:36.358Z,657.67
2018-02-06T19:16:40.471Z,573.97
2018-02-06T19:18:44.310Z,535.60
2018-02-06T19:20:52.962Z,520.17
2018-02-06T19:22:57.405Z,482.50
2018-02-06T19:25:01.265Z,467.40
2018-02-06T19:27:05.171Z,456.00
2018-02-06T19:29:09.523Z,445.70
2018-02-06T19:31:13.400Z,436.20
2018-02-06T19:33:17.230Z,416.47
2018-02-06T19:35:21.811Z,584.67
2018-02-06T19:37:25.602Z,906.87
2018-02-06T19:39:29.353Z,788.47
2018-02-06T19:41:34.001Z,643.87
2018-02-06T19:43:37.834Z,619.67
2018-02-06T19:45:42.172Z,593.93
2018-02-06T19:47:46.343Z,572.70
2018-02-06T19:49:50.166Z,552.23
2018-02-06T19:51:53.963Z,544.40
2018-02-06T19:53:58.547Z,524.03
2018-02-06T19:56:03.229Z,521.00
2018-02-06T19:58:07.356Z,502.93
2018-02-06T20:00:11.475Z,493.40
2018-02-06T20:02:15.625Z,484.33
2018-02-06T20:04:19.606Z,471.57
2018-02-06T20:06:24.034Z,468.20
2018-02-06T20:08:27.904Z,457.67
2018-02-06T20:10:32.061Z,450.33
2018-02-06T20:12:36.126Z,433.73
2018-02-06T20:48:36.986Z,682.47
2018-02-06T20:50:40.746Z,765.30
2018-02-06T20:52:44.718Z,671.73
2018-02-06T20:54:49.154Z,638.50
2018-02-06T20:56:52.915Z,610.23
2018-02-06T20:58:56.774Z,590.30
2018-02-06T21:01:00.899Z,581.90
2018-02-06T21:03:11.077Z,557.10
2018-02-06T21:05:15.350Z,548.33
2018-02-06T21:07:19.463Z,524.10
2018-02-06T21:09:23.679Z,507.70
2018-02-06T21:11:27.728Z,496.33
2018-02-06T21:13:37.139Z,486.00
2018-02-06T21:15:41.120Z,471.70
2018-02-06T21:17:45.169Z,480.93
2018-02-06T21:19:49.864Z,741.10
2018-02-06T21:21:53.678Z,654.73
2018-02-06T21:23:57.570Z,610.73
2018-02-06T21:26:01.707Z,614.47
2018-02-06T21:28:06.194Z,591.13
2018-02-06T21:30:10.724Z,571.93
2018-02-06T21:32:14.825Z,560.33
2018-02-06T21:34:18.765Z,546.57
2018-02-06T21:36:22.757Z,531.73
2018-02-06T21:38:27.452Z,515.97
2018-02-06T21:40:31.330Z,499.30
2018-02-06T21:42:35.443Z,473.90
2018-02-06T21:44:39.537Z,469.87
2018-02-06T21:46:51.866Z,462.27
2018-02-06T21:48:55.740Z,447.03
2018-02-06T21:51:05.307Z,433.37
2018-02-06T21:53:23.976Z,413.97
2018-02-06T21:55:27.955Z,398.50
2018-02-06T21:57:32.369Z,380.27
2018-02-06T21:59:36.334Z,371.17
2018-02-06T22:01:40.175Z,357.77
2018-02-06T22:03:44.950Z,329.53
2018-02-06T22:05:49.055Z,302.60
2018-02-06T22:10:01.745Z,282.60
2018-02-06T22:12:06.046Z,383.00
2018-02-06T22:14:10.384Z,563.27
2018-02-06T22:16:14.853Z,682.67
2018-02-06T22:18:18.646Z,560.87
2018-02-06T22:20:22.834Z,460.73
2018-02-06T22:22:27.389Z,409.93
2018-02-06T22:24:31.772Z,380.47
2018-02-06T22:26:35.989Z,374.43
2018-02-06T22:28:40.094Z,362.43
2018-02-06T22:30:44.044Z,354.37
2018-02-06T22:32:47.960Z,337.10
2018-02-06T22:34:52.465Z,311.93
2018-02-06T22:36:56.378Z,305.33
2018-02-06T22:39:01.133Z,295.03
2018-02-06T22:41:05.396Z,275.77
2018-02-06T22:43:09.168Z,272.67
2018-02-06T22:45:13.076Z,254.57
2018-02-06T22:47:17.648Z,239.83
2018-02-06T22:49:21.700Z,231.10
2018-02-06T22:51:25.528Z,224.03
2018-02-06T22:53:29.617Z,212.70
2018-02-06T22:55:33.535Z,200.73
2018-02-06T22:57:37.348Z,199.53
2018-02-06T22:59:41.478Z,192.13
2018-02-06T23:01:45.300Z,182.40
2018-02-06T23:03:49.045Z,172.90
2018-02-06T23:05:53.202Z,165.70
2018-02-06T23:07:56.985Z,158.40
2018-02-06T23:10:06.638Z,146.63
2018-02-06T23:12:11.140Z,141.27
2018-02-06T23:14:15.066Z,140.03
2018-02-06T23:16:18.909Z,138.60
2018-02-06T23:18:23.443Z,131.33
2018-02-06T23:20:27.578Z,123.60
2018-02-06T23:22:31.789Z,120.37
2018-02-06T23:24:36.107Z,114.07
2018-02-06T23:26:39.897Z,108.47
2018-02-06T23:28:43.721Z,105.50
2018-02-06T23:30:48.085Z,96.87
2018-02-06T23:32:51.950Z,98.63
2018-02-06T23:34:55.692Z,91.43
2018-02-06T23:36:59.782Z,87.87
2018-02-06T23:39:03.578Z,83.00
2018-02-06T23:41:07.333Z,86.30
2018-02-06T23:43:11.653Z,77.67
2018-02-06T23:45:15.914Z,81.67
2018-02-06T23:47:19.978Z,72.50
2018-02-06T23:49:24.277Z,76.70
2018-02-06T23:51:28.057Z,66.40
2018-02-06T23:53:31.814Z,65.87
2018-02-06T23:55:36.166Z,68.63
2018-02-06T23:57:40.181Z,59.20
2018-02-06T23:59:44.287Z,60.93
